createdAt,value
2023-04-08T00:01:26.811Z,50.01
2023-04-08T00:03:54.401Z,50.48
2023-04-08T00:06:21.702Z,50.56
2023-04-08T00:08:49.091Z,50.36
2023-04-08T00:11:16.646Z,50.48
2023-04-08T00:13:43.833Z,50.42
2023-04-08T00:16:11.131Z,50.06
2023-04-08T00:18:38.304Z,50.27
2023-04-08T00:21:05.512Z,50.52
2023-04-08T00:23:32.659Z,50.67
2023-04-08T00:25:59.829Z,50.82
2023-04-08T00:28:27.025Z,50.99
2023-04-08T00:30:54.261Z,50.88
2023-04-08T00:33:21.494Z,50.77
2023-04-08T00:35:48.908Z,50.97
2023-04-08T00:38:16.005Z,51.07
2023-04-08T00:40:43.180Z,51.03
2023-04-08T00:43:10.389Z,50.72
2023-04-08T00:45:38.590Z,50.83
2023-04-08T00:48:06.094Z,50.84
2023-04-08T00:50:33.777Z,50.82
2023-04-08T00:53:01.205Z,51.25
2023-04-08T00:55:28.351Z,51.05
2023-04-08T00:57:57.149Z,50.72
2023-04-08T01:00:25.199Z,50.53
2023-04-08T01:03:14.276Z,50.63
2023-04-08T01:06:27.911Z,50.62
2023-04-08T01:08:55.052Z,50.99
2023-04-08T01:11:23.199Z,50.75
2023-04-08T01:13:56.352Z,51.22
2023-04-08T01:16:26.272Z,50.88
2023-04-08T01:18:55.213Z,50.40
2023-04-08T01:21:24.294Z,50.63
2023-04-08T01:24:13.908Z,50.37
2023-04-08T01:26:42.146Z,50.64
2023-04-08T01:29:12.768Z,50.87
2023-04-08T01:31:43.033Z,50.94
2023-04-08T01:34:13.050Z,50.64
2023-04-08T01:36:44.289Z,50.34
2023-04-08T01:39:12.417Z,50.22
2023-04-08T01:41:41.410Z,50.25
2023-04-08T01:44:12.090Z,50.02
2023-04-08T01:46:43.027Z,50.40
2023-04-08T01:49:11.672Z,50.21
2023-04-08T01:51:41.924Z,50.70
2023-04-08T01:54:09.094Z,50.76
2023-04-08T01:56:42.424Z,50.59
2023-04-08T01:59:15.887Z,50.47
2023-04-08T02:01:47.155Z,50.91
2023-04-08T02:04:14.590Z,50.66
2023-04-08T02:06:41.960Z,50.69
2023-04-08T02:09:09.541Z,51.04
2023-04-08T02:11:36.871Z,50.47
2023-04-08T02:14:04.212Z,50.73
2023-04-08T02:16:48.613Z,50.83
2023-04-08T02:19:38.004Z,50.86
2023-04-08T02:22:36.857Z,51.05
2023-04-08T02:25:11.092Z,51.08
2023-04-08T02:27:40.636Z,50.70
2023-04-08T02:30:11.524Z,50.38
2023-04-08T02:32:39.651Z,50.25
2023-04-08T02:35:11.327Z,50.63
2023-04-08T02:37:39.050Z,50.75
2023-04-08T02:40:27.980Z,50.92
2023-04-08T02:42:55.793Z,50.97
2023-04-08T02:45:27.766Z,51.06
2023-04-08T02:47:54.933Z,51.06
2023-04-08T02:50:22.253Z,51.13
2023-04-08T02:52:49.364Z,50.85
2023-04-08T02:55:16.585Z,51.05
2023-04-08T02:57:44.083Z,50.97
2023-04-08T03:00:12.246Z,50.90
2023-04-08T03:02:39.618Z,51.18
2023-04-08T03:05:07.810Z,50.89
2023-04-08T03:07:35.183Z,51.43
2023-04-08T03:10:03.223Z,51.28
2023-04-08T03:12:30.546Z,51.42
2023-04-08T03:14:57.802Z,50.98
2023-04-08T03:17:25.126Z,51.17
2023-04-08T03:19:52.309Z,51.09
2023-04-08T03:22:19.791Z,50.79
2023-04-08T03:24:46.934Z,50.60
2023-04-08T03:27:14.101Z,50.91
2023-04-08T03:29:41.387Z,51.04
2023-04-08T03:32:08.831Z,50.79
2023-04-08T03:34:35.997Z,50.90
2023-04-08T03:37:03.318Z,50.61
2023-04-08T03:39:30.459Z,51.04
2023-04-08T03:41:57.644Z,50.69
2023-04-08T03:44:24.842Z,50.98
2023-04-08T03:46:52.011Z,51.32
2023-04-08T03:49:19.361Z,51.12
2023-04-08T03:51:46.519Z,50.92
2023-04-08T03:54:13.620Z,51.02
2023-04-08T03:56:40.810Z,51.21
2023-04-08T03:59:09.402Z,51.14
2023-04-08T04:01:36.544Z,51.06
2023-04-08T04:04:03.926Z,51.16
2023-04-08T04:06:31.195Z,51.54
2023-04-08T04:08:58.418Z,51.18
2023-04-08T04:11:25.791Z,51.33
2023-04-08T04:13:53.019Z,51.14
2023-04-08T04:16:21.885Z,51.13
2023-04-08T04:18:49.700Z,51.17
2023-04-08T04:21:17.315Z,50.83
2023-04-08T04:23:44.714Z,51.16
2023-04-08T04:26:12.628Z,51.13
2023-04-08T04:28:39.758Z,51.19
2023-04-08T04:31:07.141Z,51.13
2023-04-08T04:33:34.398Z,51.21
2023-04-08T04:36:01.692Z,51.19
2023-04-08T04:38:28.910Z,51.10
2023-04-08T04:40:56.047Z,50.98
2023-04-08T04:43:23.364Z,51.29
2023-04-08T04:45:50.559Z,51.47
2023-04-08T04:48:17.743Z,51.37
2023-04-08T04:50:44.918Z,51.59
2023-04-08T04:53:12.053Z,51.27
2023-04-08T04:55:39.447Z,51.39
2023-04-08T04:58:06.592Z,51.23
2023-04-08T05:00:34.211Z,51.27
2023-04-08T05:03:01.345Z,51.60
2023-04-08T05:05:28.641Z,51.21
2023-04-08T05:07:55.877Z,51.96
2023-04-08T05:10:23.137Z,51.62
2023-04-08T05:12:50.529Z,51.63
2023-04-08T05:15:18.179Z,51.54
2023-04-08T05:17:45.889Z,51.69
2023-04-08T05:20:14.384Z,51.71
2023-04-08T05:22:42.493Z,51.83
2023-04-08T05:25:10.300Z,51.71
2023-04-08T05:27:37.612Z,52.13
2023-04-08T05:30:05.393Z,52.05
2023-04-08T05:32:32.510Z,51.97
2023-04-08T05:35:03.590Z,51.90
2023-04-08T05:37:32.864Z,51.96
2023-04-08T05:40:00.151Z,52.32
2023-04-08T05:42:27.313Z,52.23
2023-04-08T05:44:54.858Z,52.11
2023-04-08T05:47:22.033Z,52.34
2023-04-08T05:49:50.790Z,52.40
2023-04-08T05:52:18.483Z,52.38
2023-04-08T05:54:45.676Z,52.06
2023-04-08T05:57:12.889Z,52.14
2023-04-08T05:59:40.129Z,52.33
2023-04-08T06:02:07.890Z,52.33
2023-04-08T06:04:35.340Z,52.33
2023-04-08T06:07:02.639Z,52.09
2023-04-08T06:09:29.872Z,52.50
2023-04-08T06:11:57.134Z,52.12
2023-04-08T06:14:24.339Z,52.33
2023-04-08T06:16:51.551Z,51.88
2023-04-08T06:19:18.717Z,52.01
2023-04-08T06:21:45.850Z,51.96
2023-04-08T06:24:13.026Z,51.93
2023-04-08T06:26:40.353Z,52.09
2023-04-08T06:29:07.677Z,51.76
2023-04-08T06:31:34.948Z,51.85
2023-04-08T06:34:02.075Z,51.81
2023-04-08T06:36:29.439Z,51.77
2023-04-08T06:38:56.670Z,51.94
2023-04-08T06:41:23.947Z,51.67
2023-04-08T06:43:51.058Z,51.74
2023-04-08T06:46:18.256Z,51.75
2023-04-08T06:48:45.435Z,51.69
2023-04-08T06:51:12.555Z,51.53
2023-04-08T06:53:39.710Z,51.13
2023-04-08T06:56:07.197Z,51.08
2023-04-08T06:58:34.414Z,50.37
2023-04-08T07:01:01.666Z,50.03
2023-04-08T07:03:29.081Z,49.68
2023-04-08T07:05:56.321Z,48.32
2023-04-08T07:08:23.423Z,47.50
2023-04-08T07:10:52.861Z,47.22
2023-04-08T07:13:20.279Z,47.03
2023-04-08T07:15:47.387Z,46.17
2023-04-08T07:18:14.483Z,46.01
2023-04-08T07:20:41.638Z,46.19
2023-04-08T07:23:08.815Z,46.09
2023-04-08T07:25:35.939Z,45.74
2023-04-08T07:28:03.620Z,45.63
2023-04-08T07:30:30.885Z,44.99
2023-04-08T07:33:00.471Z,44.80
2023-04-08T07:35:28.560Z,44.07
2023-04-08T07:37:55.782Z,43.52
2023-04-08T07:40:22.934Z,43.30
2023-04-08T07:42:50.222Z,43.04
2023-04-08T07:45:17.409Z,42.34
2023-04-08T07:47:45.228Z,42.12
2023-04-08T07:50:12.574Z,41.89
2023-04-08T07:52:40.258Z,42.04
2023-04-08T07:55:08.291Z,41.94
2023-04-08T07:57:35.630Z,41.29
2023-04-08T08:00:03.258Z,40.74
2023-04-08T08:02:30.797Z,39.74
2023-04-08T08:04:58.008Z,39.55
2023-04-08T08:07:25.341Z,39.07
2023-04-08T08:09:52.597Z,38.90
2023-04-08T08:12:19.916Z,38.83
2023-04-08T08:14:47.061Z,38.13
2023-04-08T08:17:14.199Z,38.64
2023-04-08T08:19:41.363Z,38.77
2023-04-08T08:22:08.864Z,38.72
2023-04-08T08:24:36.003Z,38.27
2023-04-08T08:27:03.410Z,38.21
2023-04-08T08:29:30.525Z,37.37
2023-04-08T08:31:57.722Z,36.71
2023-04-08T08:34:25.070Z,36.12
2023-04-08T08:36:52.183Z,35.90
2023-04-08T08:39:19.422Z,35.81
2023-04-08T08:41:46.543Z,36.48
2023-04-08T08:44:14.387Z,35.81
2023-04-08T08:46:45.074Z,36.03
2023-04-08T08:49:12.886Z,36.09
2023-04-08T08:51:41.424Z,35.37
2023-04-08T08:54:08.705Z,35.44
2023-04-08T08:56:35.950Z,35.29
2023-04-08T08:59:03.143Z,35.08
2023-04-08T09:01:40.331Z,33.69
2023-04-08T09:04:21.191Z,33.82
2023-04-08T09:07:04.627Z,33.83
2023-04-08T09:09:51.819Z,33.39
2023-04-08T09:12:19.323Z,33.13
2023-04-08T09:14:46.786Z,33.06
2023-04-08T09:17:14.994Z,32.01
2023-04-08T09:20:12.148Z,31.96
2023-04-08T09:23:02.723Z,31.77
2023-04-08T09:25:34.174Z,31.97
2023-04-08T09:28:01.429Z,31.39
2023-04-08T09:30:28.887Z,30.98
2023-04-08T09:32:58.547Z,31.44
2023-04-08T09:35:26.562Z,30.78
2023-04-08T09:37:53.804Z,30.34
2023-04-08T09:40:22.692Z,30.24
2023-04-08T09:42:54.220Z,30.70
2023-04-08T09:45:24.990Z,29.67
2023-04-08T09:48:22.825Z,29.34
2023-04-08T09:50:52.659Z,28.99
2023-04-08T09:53:36.630Z,29.13
2023-04-08T09:56:10.561Z,28.81
2023-04-08T09:58:54.781Z,27.86
2023-04-08T10:01:37.481Z,28.13
2023-04-08T10:04:12.415Z,27.91
2023-04-08T10:06:41.641Z,27.35
2023-04-08T10:09:09.667Z,27.13
2023-04-08T10:11:37.395Z,26.88
2023-04-08T10:14:04.591Z,27.07
2023-04-08T10:16:31.803Z,26.95
2023-04-08T10:21:42.665Z,26.09
2023-04-08T10:24:11.628Z,26.08
2023-04-08T10:26:42.302Z,25.61
2023-04-08T10:29:18.571Z,26.18
2023-04-08T10:31:50.730Z,25.49
2023-04-08T10:34:19.097Z,25.70
2023-04-08T10:36:47.600Z,25.96
2023-04-08T10:39:16.663Z,25.59
2023-04-08T10:41:48.462Z,25.73
2023-04-08T10:44:26.441Z,25.64
2023-04-08T10:46:55.069Z,25.57
2023-04-08T10:49:22.247Z,25.57
2023-04-08T10:51:49.747Z,25.76
2023-04-08T10:54:18.698Z,25.60
2023-04-08T10:56:53.177Z,26.04
2023-04-08T10:59:32.227Z,25.96
2023-04-08T11:01:59.827Z,26.26
2023-04-08T11:04:27.284Z,25.86
2023-04-08T11:06:54.656Z,26.08
2023-04-08T11:09:22.038Z,26.76
2023-04-08T11:11:49.700Z,26.91
2023-04-08T11:14:17.952Z,26.30
2023-04-08T11:16:45.509Z,26.68
2023-04-08T11:19:14.753Z,26.39
2023-04-08T11:21:42.169Z,26.43
2023-04-08T11:24:12.835Z,26.32
2023-04-08T11:26:41.037Z,27.15
2023-04-08T11:29:12.063Z,26.56
2023-04-08T11:31:39.547Z,26.08
2023-04-08T11:34:06.836Z,25.92
2023-04-08T11:36:34.163Z,27.30
2023-04-08T11:39:01.346Z,27.42
2023-04-08T11:41:37.528Z,26.19
2023-04-08T11:44:04.858Z,26.01
2023-04-08T11:46:32.160Z,26.08
2023-04-08T11:49:08.337Z,26.49
2023-04-08T11:51:54.827Z,26.09
2023-04-08T11:54:33.033Z,26.81
2023-04-08T11:59:29.570Z,26.22
2023-04-08T12:01:57.412Z,26.65
2023-04-08T12:04:25.118Z,26.63
2023-04-08T12:06:52.445Z,27.01
2023-04-08T12:09:19.742Z,26.65
2023-04-08T12:11:47.207Z,26.99
2023-04-08T12:14:15.264Z,26.98
2023-04-08T12:16:43.007Z,26.28
2023-04-08T12:19:12.544Z,26.27
2023-04-08T12:21:40.041Z,24.61
2023-04-08T12:24:07.326Z,25.44
2023-04-08T12:26:34.475Z,24.68
2023-04-08T12:29:01.605Z,24.80
2023-04-08T12:31:28.820Z,24.45
2023-04-08T12:33:56.018Z,24.17
2023-04-08T12:36:23.281Z,24.15
2023-04-08T12:38:51.034Z,24.44
2023-04-08T12:41:18.373Z,24.62
2023-04-08T12:43:45.571Z,24.08
2023-04-08T12:46:12.820Z,24.23
2023-04-08T12:48:40.869Z,24.56
2023-04-08T12:51:08.189Z,23.84
2023-04-08T12:53:35.354Z,24.68
2023-04-08T12:56:02.571Z,25.26
2023-04-08T12:58:29.790Z,25.11
2023-04-08T13:00:57.122Z,24.66
2023-04-08T13:03:24.423Z,25.20
2023-04-08T13:05:51.715Z,24.86
2023-04-08T13:08:18.941Z,25.45
2023-04-08T13:10:46.129Z,25.68
2023-04-08T13:13:13.316Z,25.69
2023-04-08T13:15:40.579Z,25.88
2023-04-08T13:18:07.837Z,26.13
2023-04-08T13:20:35.117Z,25.99
2023-04-08T13:23:02.345Z,25.98
2023-04-08T13:25:29.856Z,26.11
2023-04-08T13:27:57.185Z,26.24
2023-04-08T13:30:24.538Z,26.22
2023-04-08T13:32:51.704Z,26.59
2023-04-08T13:35:18.906Z,26.82
2023-04-08T13:37:46.063Z,27.25
2023-04-08T13:40:13.423Z,27.53
2023-04-08T13:42:40.589Z,27.49
2023-04-08T13:45:08.559Z,27.52
2023-04-08T13:47:37.637Z,27.42
2023-04-08T13:50:06.936Z,27.36
2023-04-08T13:52:34.478Z,27.43
2023-04-08T13:55:01.617Z,27.82
2023-04-08T13:57:29.091Z,27.58
2023-04-08T13:59:56.342Z,27.59
2023-04-08T14:02:23.780Z,27.47
2023-04-08T14:04:51.843Z,27.58
2023-04-08T14:07:19.037Z,27.75
2023-04-08T14:09:46.263Z,27.61
2023-04-08T14:12:13.459Z,27.18
2023-04-08T14:14:40.665Z,27.40
2023-04-08T14:17:08.828Z,28.12
2023-04-08T14:19:36.041Z,26.98
2023-04-08T14:22:03.249Z,27.32
2023-04-08T14:24:30.537Z,27.57
2023-04-08T14:26:57.691Z,26.96
2023-04-08T14:29:26.557Z,26.46
2023-04-08T14:31:54.801Z,26.29
2023-04-08T14:34:21.942Z,26.38
2023-04-08T14:36:49.274Z,26.32
2023-04-08T14:39:16.555Z,26.57
2023-04-08T14:41:43.657Z,26.38
2023-04-08T14:44:10.815Z,26.49
2023-04-08T14:46:38.032Z,26.55
2023-04-08T14:49:05.290Z,26.25
2023-04-08T14:51:32.576Z,26.36
2023-04-08T14:53:59.718Z,26.85
2023-04-08T14:56:26.903Z,27.39
2023-04-08T14:58:54.329Z,26.93
2023-04-08T15:01:21.592Z,27.02
2023-04-08T15:03:48.814Z,27.15
2023-04-08T15:06:16.240Z,27.00
2023-04-08T15:08:43.451Z,27.58
2023-04-08T15:11:10.561Z,27.49
2023-04-08T15:13:37.878Z,27.55
2023-04-08T15:16:05.375Z,27.65
2023-04-08T15:18:32.559Z,27.77
2023-04-08T15:20:59.797Z,27.81
2023-04-08T15:23:27.064Z,28.32
2023-04-08T15:25:54.210Z,28.22
2023-04-08T15:28:21.456Z,28.90
2023-04-08T15:30:50.249Z,28.99
2023-04-08T15:33:17.411Z,29.37
2023-04-08T15:35:47.722Z,29.45
2023-04-08T15:38:15.385Z,29.34
2023-04-08T15:40:43.396Z,29.59
2023-04-08T15:43:10.574Z,29.93
2023-04-08T15:45:43.652Z,29.73
2023-04-08T15:48:11.229Z,29.72
2023-04-08T15:50:38.871Z,29.82
2023-04-08T15:53:06.067Z,30.09
2023-04-08T15:55:41.737Z,30.15
2023-04-08T15:58:09.064Z,30.24
2023-04-08T16:00:36.195Z,30.69
2023-04-08T16:03:04.240Z,31.04
2023-04-08T16:05:32.370Z,31.01
2023-04-08T16:07:59.518Z,30.97
2023-04-08T16:10:26.704Z,31.53
2023-04-08T16:12:54.056Z,31.38
2023-04-08T16:15:21.425Z,31.51
2023-04-08T16:17:52.491Z,31.80
2023-04-08T16:20:20.697Z,32.02
2023-04-08T16:22:48.056Z,32.04
2023-04-08T16:25:15.226Z,32.11
2023-04-08T16:27:42.399Z,32.34
2023-04-08T16:30:10.265Z,32.41
2023-04-08T16:32:37.463Z,32.61
2023-04-08T16:35:05.061Z,32.77
2023-04-08T16:37:33.583Z,32.71
2023-04-08T16:40:00.911Z,32.66
2023-04-08T16:42:28.457Z,32.68
2023-04-08T16:44:59.285Z,32.47
2023-04-08T16:47:26.854Z,32.43
2023-04-08T16:49:54.125Z,32.62
2023-04-08T16:52:21.339Z,32.51
2023-04-08T16:54:48.900Z,33.15
2023-04-08T16:57:16.464Z,33.02
2023-04-08T16:59:43.909Z,32.81
2023-04-08T17:02:11.699Z,32.98
2023-04-08T17:04:38.945Z,33.00
2023-04-08T17:07:06.116Z,33.12
2023-04-08T17:09:33.298Z,33.32
2023-04-08T17:12:00.645Z,33.74
2023-04-08T17:14:28.278Z,33.53
2023-04-08T17:16:55.934Z,33.82
2023-04-08T17:19:23.716Z,33.62
2023-04-08T17:21:50.922Z,33.77
2023-04-08T17:24:18.474Z,33.70
2023-04-08T17:26:45.667Z,34.05
2023-04-08T17:29:12.878Z,34.36
2023-04-08T17:31:40.551Z,34.91
2023-04-08T17:34:08.153Z,34.91
2023-04-08T17:36:36.055Z,34.88
2023-04-08T17:39:03.423Z,35.12
2023-04-08T17:41:39.619Z,35.97
2023-04-08T17:44:08.694Z,36.72
2023-04-08T17:46:36.130Z,36.78
2023-04-08T17:49:03.435Z,36.64
2023-04-08T17:51:31.216Z,37.20
2023-04-08T17:53:58.500Z,37.51
2023-04-08T17:56:25.665Z,37.99
2023-04-08T17:58:52.845Z,38.17
2023-04-08T18:01:20.550Z,38.60
2023-04-08T18:03:47.861Z,38.12
2023-04-08T18:06:15.070Z,38.59
2023-04-08T18:08:42.526Z,38.49
2023-04-08T18:11:10.297Z,38.19
2023-04-08T18:13:37.684Z,38.39
2023-04-08T18:16:05.231Z,39.00
2023-04-08T18:18:32.703Z,38.88
2023-04-08T18:20:59.931Z,38.79
2023-04-08T18:23:27.110Z,39.08
2023-04-08T18:25:54.524Z,39.49
2023-04-08T18:28:21.722Z,39.61
2023-04-08T18:30:51.829Z,39.62
2023-04-08T18:33:19.582Z,40.05
2023-04-08T18:35:47.189Z,39.83
2023-04-08T18:38:14.479Z,40.04
2023-04-08T18:40:42.178Z,40.11
2023-04-08T18:43:09.549Z,40.29
2023-04-08T18:45:36.661Z,40.28
2023-04-08T18:48:03.870Z,40.16
2023-04-08T18:50:31.184Z,39.98
2023-04-08T18:52:58.389Z,40.11
2023-04-08T18:55:25.707Z,40.12
2023-04-08T18:57:53.542Z,40.22
2023-04-08T19:00:20.969Z,40.57
2023-04-08T19:02:48.241Z,40.68
2023-04-08T19:05:15.491Z,40.72
2023-04-08T19:07:42.666Z,40.55
2023-04-08T19:10:10.046Z,40.72
2023-04-08T19:12:37.279Z,40.93
2023-04-08T19:15:05.006Z,41.04
2023-04-08T19:17:32.216Z,41.35
2023-04-08T19:19:59.851Z,41.41
2023-04-08T19:22:27.002Z,41.40
2023-04-08T19:24:55.164Z,41.56
2023-04-08T19:27:22.408Z,41.26
2023-04-08T19:29:49.816Z,41.76
2023-04-08T19:32:17.286Z,41.71
2023-04-08T19:34:44.419Z,41.80
2023-04-08T19:37:11.534Z,42.16
2023-04-08T19:39:38.672Z,41.97
2023-04-08T19:42:05.919Z,42.15
2023-04-08T19:44:33.386Z,41.75
2023-04-08T19:47:01.109Z,41.97
2023-04-08T19:49:28.395Z,42.11
2023-04-08T19:51:55.566Z,42.27
2023-04-08T19:54:22.737Z,42.38
2023-04-08T19:56:50.354Z,42.45
2023-04-08T19:59:17.726Z,42.80
2023-04-08T20:01:45.186Z,42.65
2023-04-08T20:04:12.739Z,42.75
2023-04-08T20:06:40.208Z,42.79
2023-04-08T20:09:07.383Z,43.02
2023-04-08T20:11:35.722Z,42.91
2023-04-08T20:14:04.049Z,43.00
2023-04-08T20:16:31.788Z,43.45
2023-04-08T20:18:59.348Z,43.29
2023-04-08T20:21:26.590Z,43.38
2023-04-08T20:23:53.736Z,43.55
2023-04-08T20:26:20.939Z,43.40
2023-04-08T20:28:48.051Z,43.46
2023-04-08T20:31:15.160Z,43.28
2023-04-08T20:33:42.396Z,43.49
2023-04-08T20:36:12.750Z,43.67
2023-04-08T20:38:40.512Z,43.82
2023-04-08T20:41:07.811Z,43.71
2023-04-08T20:43:35.020Z,43.94
2023-04-08T20:46:02.477Z,43.74
2023-04-08T20:48:30.049Z,43.99
2023-04-08T20:50:57.181Z,44.07
2023-04-08T20:53:24.301Z,44.35
2023-04-08T20:55:51.494Z,44.35
2023-04-08T20:58:18.749Z,44.49
2023-04-08T21:00:46.084Z,44.50
2023-04-08T21:03:14.389Z,44.57
2023-04-08T21:05:41.683Z,44.51
2023-04-08T21:08:09.423Z,44.45
2023-04-08T21:10:36.931Z,44.56
2023-04-08T21:13:04.113Z,44.64
2023-04-08T21:15:31.535Z,44.77
2023-04-08T21:17:58.804Z,45.10
2023-04-08T21:20:26.104Z,44.80
2023-04-08T21:22:53.446Z,44.72
2023-04-08T21:25:20.631Z,44.91
2023-04-08T21:27:47.820Z,44.95
2023-04-08T21:30:15.205Z,44.92
2023-04-08T21:32:42.412Z,44.93
2023-04-08T21:35:10.108Z,44.74
2023-04-08T21:37:37.268Z,44.74
2023-04-08T21:40:05.224Z,44.86
2023-04-08T21:42:32.438Z,44.96
2023-04-08T21:45:00.136Z,44.59
2023-04-08T21:47:27.556Z,44.21
2023-04-08T21:49:54.757Z,44.40
2023-04-08T21:52:22.073Z,44.25
2023-04-08T21:54:50.297Z,44.42
2023-04-08T21:57:17.948Z,44.47
2023-04-08T21:59:45.327Z,44.49
2023-04-08T22:02:13.051Z,44.17
2023-04-08T22:04:40.507Z,44.42
2023-04-08T22:07:08.128Z,44.62
2023-04-08T22:09:35.330Z,44.55
2023-04-08T22:12:02.740Z,44.79
2023-04-08T22:14:30.122Z,44.65
2023-04-08T22:16:57.925Z,44.68
2023-04-08T22:19:25.562Z,44.68
2023-04-08T22:21:52.702Z,44.70
2023-04-08T22:24:20.470Z,44.66
2023-04-08T22:26:47.712Z,44.92
2023-04-08T22:29:14.914Z,44.70
2023-04-08T22:31:42.985Z,44.98
2023-04-08T22:34:10.232Z,44.87
2023-04-08T22:36:37.389Z,45.22
2023-04-08T22:39:04.541Z,45.30
2023-04-08T22:41:31.748Z,45.25
2023-04-08T22:43:58.918Z,45.37
2023-04-08T22:46:26.166Z,45.26
2023-04-08T22:48:53.683Z,45.13
2023-04-08T22:51:21.072Z,45.42
2023-04-08T22:53:48.484Z,45.31
2023-04-08T22:56:15.754Z,45.27
2023-04-08T22:58:42.936Z,45.63
2023-04-08T23:01:18.410Z,45.60
2023-04-08T23:03:45.615Z,45.18
2023-04-08T23:06:12.993Z,45.23
2023-04-08T23:08:40.300Z,45.18
2023-04-08T23:11:07.703Z,45.33
2023-04-08T23:13:35.401Z,45.17
2023-04-08T23:16:02.645Z,45.54
2023-04-08T23:18:29.889Z,45.23
2023-04-08T23:20:58.154Z,45.16
2023-04-08T23:23:25.662Z,45.23
2023-04-08T23:25:55.329Z,45.75
2023-04-08T23:28:23.223Z,45.59
2023-04-08T23:30:50.650Z,45.78
2023-04-08T23:33:17.839Z,45.17
2023-04-08T23:35:45.162Z,45.27
2023-04-08T23:38:12.392Z,45.40
2023-04-08T23:40:39.808Z,45.28
2023-04-08T23:43:06.959Z,45.07
2023-04-08T23:45:34.124Z,45.39
2023-04-08T23:48:01.361Z,45.20
2023-04-08T23:50:28.604Z,45.59
2023-04-08T23:52:55.790Z,45.68
2023-04-08T23:55:22.928Z,45.75
2023-04-08T23:57:50.112Z,45.67
